sensor_id;sensor_type;location;lat;lon;timestamp;P1;P2;P0
54305;PMS7003;50434;45.188;5.712;2022-07-30T00:01:01;7.67;7.67;6.00
54305;PMS7003;50434;45.188;5.712;2022-07-30T00:03:27;9.33;9.33;7.00
54305;PMS7003;50434;45.188;5.712;2022-07-30T00:05:54;7.00;7.00;5.67
54305;PMS7003;50434;45.188;5.712;2022-07-30T00:08:20;7.75;7.75;6.00
54305;PMS7003;50434;45.188;5.712;2022-07-30T00:10:46;6.00;6.00;4.25
54305;PMS7003;50434;45.188;5.712;2022-07-30T00:13:12;6.33;6.33;4.67
54305;PMS7003;50434;45.188;5.712;2022-07-30T00:15:37;4.67;4.67;4.33
54305;PMS7003;50434;45.188;5.712;2022-07-30T00:18:03;5.33;5.33;4.33
54305;PMS7003;50434;45.188;5.712;2022-07-30T00:20:28;4.33;4.33;4.00
54305;PMS7003;50434;45.188;5.712;2022-07-30T00:22:54;5.33;5.33;4.33
54305;PMS7003;50434;45.188;5.712;2022-07-30T00:25:19;5.67;5.67;4.00
54305;PMS7003;50434;45.188;5.712;2022-07-30T00:27:45;5.67;5.67;5.00
54305;PMS7003;50434;45.188;5.712;2022-07-30T00:30:10;5.00;5.00;3.67
54305;PMS7003;50434;45.188;5.712;2022-07-30T00:32:36;4.50;4.50;3.75
54305;PMS7003;50434;45.188;5.712;2022-07-30T00:35:02;4.33;4.33;4.33
54305;PMS7003;50434;45.188;5.712;2022-07-30T00:37:27;6.00;6.00;5.00
54305;PMS7003;50434;45.188;5.712;2022-07-30T00:39:53;6.00;6.00;5.00
54305;PMS7003;50434;45.188;5.712;2022-07-30T00:42:18;7.67;7.67;6.00
54305;PMS7003;50434;45.188;5.712;2022-07-30T00:44:50;6.75;6.75;5.75
54305;PMS7003;50434;45.188;5.712;2022-07-30T00:47:19;6.00;6.00;5.00
54305;PMS7003;50434;45.188;5.712;2022-07-30T00:49:45;8.75;8.75;6.75
54305;PMS7003;50434;45.188;5.712;2022-07-30T00:52:11;5.25;5.25;4.50
54305;PMS7003;50434;45.188;5.712;2022-07-30T00:54:37;6.00;6.00;4.67
54305;PMS7003;50434;45.188;5.712;2022-07-30T00:57:02;6.00;6.00;4.67
54305;PMS7003;50434;45.188;5.712;2022-07-30T00:59:28;5.67;5.67;5.00
54305;PMS7003;50434;45.188;5.712;2022-07-30T01:01:53;4.67;4.67;4.00
54305;PMS7003;50434;45.188;5.712;2022-07-30T01:04:19;5.67;5.67;4.33
54305;PMS7003;50434;45.188;5.712;2022-07-30T01:06:45;4.50;4.50;3.75
54305;PMS7003;50434;45.188;5.712;2022-07-30T01:09:11;6.00;6.00;5.00
54305;PMS7003;50434;45.188;5.712;2022-07-30T01:11:37;3.00;3.00;3.00
54305;PMS7003;50434;45.188;5.712;2022-07-30T01:14:05;7.00;7.00;4.75
54305;PMS7003;50434;45.188;5.712;2022-07-30T01:16:32;5.00;5.00;4.00
54305;PMS7003;50434;45.188;5.712;2022-07-30T01:19:03;6.75;6.50;4.50
54305;PMS7003;50434;45.188;5.712;2022-07-30T01:21:54;3.75;3.75;2.25
54305;PMS7003;50434;45.188;5.712;2022-07-30T01:24:42;4.50;4.50;4.25
54305;PMS7003;50434;45.188;5.712;2022-07-30T01:27:11;4.00;4.00;3.25
54305;PMS7003;50434;45.188;5.712;2022-07-30T01:29:38;4.25;4.25;3.25
54305;PMS7003;50434;45.188;5.712;2022-07-30T01:32:07;6.25;6.25;5.00
54305;PMS7003;50434;45.188;5.712;2022-07-30T01:34:34;6.00;6.00;4.75
54305;PMS7003;50434;45.188;5.712;2022-07-30T01:37:03;5.00;5.00;4.25
54305;PMS7003;50434;45.188;5.712;2022-07-30T01:39:29;4.75;4.75;3.75
54305;PMS7003;50434;45.188;5.712;2022-07-30T01:41:56;5.75;5.75;4.75
54305;PMS7003;50434;45.188;5.712;2022-07-30T01:44:23;5.00;5.00;4.75
54305;PMS7003;50434;45.188;5.712;2022-07-30T01:46:50;4.75;4.75;4.00
54305;PMS7003;50434;45.188;5.712;2022-07-30T01:49:18;6.75;6.75;4.75
54305;PMS7003;50434;45.188;5.712;2022-07-30T01:51:45;5.75;5.75;4.75
54305;PMS7003;50434;45.188;5.712;2022-07-30T01:54:11;5.75;5.75;4.75
54305;PMS7003;50434;45.188;5.712;2022-07-30T01:56:38;5.00;5.00;4.00
54305;PMS7003;50434;45.188;5.712;2022-07-30T01:59:05;4.00;4.00;3.75
54305;PMS7003;50434;45.188;5.712;2022-07-30T02:01:33;6.00;6.00;5.50
54305;PMS7003;50434;45.188;5.712;2022-07-30T02:03:59;5.33;5.33;4.33
54305;PMS7003;50434;45.188;5.712;2022-07-30T02:06:32;5.25;5.25;4.25
54305;PMS7003;50434;45.188;5.712;2022-07-30T02:09:03;5.75;5.75;4.75
54305;PMS7003;50434;45.188;5.712;2022-07-30T02:11:30;5.75;5.75;4.75
54305;PMS7003;50434;45.188;5.712;2022-07-30T02:14:27;4.00;4.00;3.50
54305;PMS7003;50434;45.188;5.712;2022-07-30T02:16:56;3.75;3.75;2.25
54305;PMS7003;50434;45.188;5.712;2022-07-30T02:19:24;7.00;7.00;5.00
54305;PMS7003;50434;45.188;5.712;2022-07-30T02:21:55;6.75;6.75;4.25
54305;PMS7003;50434;45.188;5.712;2022-07-30T02:24:26;6.00;6.00;5.00
54305;PMS7003;50434;45.188;5.712;2022-07-30T02:26:55;6.25;6.25;4.25
54305;PMS7003;50434;45.188;5.712;2022-07-30T02:29:27;6.00;6.00;5.00
54305;PMS7003;50434;45.188;5.712;2022-07-30T02:31:54;6.75;6.75;5.25
54305;PMS7003;50434;45.188;5.712;2022-07-30T02:34:22;6.25;6.25;5.25
54305;PMS7003;50434;45.188;5.712;2022-07-30T02:36:49;6.50;6.50;6.25
54305;PMS7003;50434;45.188;5.712;2022-07-30T02:39:17;5.75;5.75;4.75
54305;PMS7003;50434;45.188;5.712;2022-07-30T02:41:44;5.75;5.75;4.25
54305;PMS7003;50434;45.188;5.712;2022-07-30T02:44:11;7.75;7.75;6.50
54305;PMS7003;50434;45.188;5.712;2022-07-30T02:46:39;7.00;7.00;6.25
54305;PMS7003;50434;45.188;5.712;2022-07-30T02:49:05;8.00;8.00;6.67
54305;PMS7003;50434;45.188;5.712;2022-07-30T02:51:32;7.75;7.75;6.00
54305;PMS7003;50434;45.188;5.712;2022-07-30T02:53:59;5.75;5.75;4.75
54305;PMS7003;50434;45.188;5.712;2022-07-30T02:56:27;7.00;7.00;6.00
54305;PMS7003;50434;45.188;5.712;2022-07-30T02:58:54;6.25;6.25;5.50
54305;PMS7003;50434;45.188;5.712;2022-07-30T03:01:21;5.50;5.50;4.50
54305;PMS7003;50434;45.188;5.712;2022-07-30T03:03:47;6.25;6.25;5.00
54305;PMS7003;50434;45.188;5.712;2022-07-30T03:06:14;6.50;6.50;5.50
54305;PMS7003;50434;45.188;5.712;2022-07-30T03:08:42;6.75;6.75;5.25
54305;PMS7003;50434;45.188;5.712;2022-07-30T03:11:12;7.75;7.75;6.25
54305;PMS7003;50434;45.188;5.712;2022-07-30T03:13:39;7.25;7.25;5.50
54305;PMS7003;50434;45.188;5.712;2022-07-30T03:16:08;7.67;7.67;6.00
54305;PMS7003;50434;45.188;5.712;2022-07-30T03:18:35;6.50;6.50;5.50
54305;PMS7003;50434;45.188;5.712;2022-07-30T03:21:02;7.75;7.75;6.50
54305;PMS7003;50434;45.188;5.712;2022-07-30T03:23:32;7.50;7.50;5.50
54305;PMS7003;50434;45.188;5.712;2022-07-30T03:26:01;7.25;7.25;5.75
54305;PMS7003;50434;45.188;5.712;2022-07-30T03:28:30;7.00;7.00;5.75
54305;PMS7003;50434;45.188;5.712;2022-07-30T03:30:56;7.50;7.50;5.75
54305;PMS7003;50434;45.188;5.712;2022-07-30T03:33:22;8.33;8.33;6.67
54305;PMS7003;50434;45.188;5.712;2022-07-30T03:35:48;7.00;7.00;5.75
54305;PMS7003;50434;45.188;5.712;2022-07-30T03:38:15;6.50;6.50;5.50
54305;PMS7003;50434;45.188;5.712;2022-07-30T03:40:42;6.50;6.50;6.00
54305;PMS7003;50434;45.188;5.712;2022-07-30T03:43:08;6.00;6.00;5.50
54305;PMS7003;50434;45.188;5.712;2022-07-30T03:45:37;6.67;6.67;4.67
54305;PMS7003;50434;45.188;5.712;2022-07-30T03:48:06;7.00;7.00;5.00
54305;PMS7003;50434;45.188;5.712;2022-07-30T03:50:34;7.00;7.00;5.75
54305;PMS7003;50434;45.188;5.712;2022-07-30T03:53:02;5.00;5.00;3.75
54305;PMS7003;50434;45.188;5.712;2022-07-30T03:55:28;7.00;7.00;6.50
54305;PMS7003;50434;45.188;5.712;2022-07-30T03:57:55;7.00;7.00;5.75
54305;PMS7003;50434;45.188;5.712;2022-07-30T04:00:20;5.33;5.33;5.00
54305;PMS7003;50434;45.188;5.712;2022-07-30T04:02:46;7.75;7.75;6.25
54305;PMS7003;50434;45.188;5.712;2022-07-30T04:05:12;7.33;7.33;6.00
54305;PMS7003;50434;45.188;5.712;2022-07-30T04:07:38;6.00;6.00;5.25
54305;PMS7003;50434;45.188;5.712;2022-07-30T04:10:04;6.33;6.33;5.67
54305;PMS7003;50434;45.188;5.712;2022-07-30T04:12:30;5.50;5.50;4.75
54305;PMS7003;50434;45.188;5.712;2022-07-30T04:14:56;6.67;6.67;6.00
54305;PMS7003;50434;45.188;5.712;2022-07-30T04:17:43;6.00;6.00;5.00
54305;PMS7003;50434;45.188;5.712;2022-07-30T04:20:16;7.25;7.25;5.75
54305;PMS7003;50434;45.188;5.712;2022-07-30T04:22:45;8.50;7.75;6.00
54305;PMS7003;50434;45.188;5.712;2022-07-30T04:25:12;9.00;9.00;6.75
54305;PMS7003;50434;45.188;5.712;2022-07-30T04:27:39;5.75;5.75;4.75
54305;PMS7003;50434;45.188;5.712;2022-07-30T04:30:05;6.67;6.67;5.67
54305;PMS7003;50434;45.188;5.712;2022-07-30T04:32:31;5.75;5.00;3.75
54305;PMS7003;50434;45.188;5.712;2022-07-30T04:34:57;7.00;7.00;6.00
54305;PMS7003;50434;45.188;5.712;2022-07-30T04:37:26;7.50;7.50;6.50
54305;PMS7003;50434;45.188;5.712;2022-07-30T04:39:52;8.75;8.75;6.00
54305;PMS7003;50434;45.188;5.712;2022-07-30T04:42:26;7.75;7.75;6.75
54305;PMS7003;50434;45.188;5.712;2022-07-30T04:44:52;8.25;8.25;6.75
54305;PMS7003;50434;45.188;5.712;2022-07-30T04:47:19;6.75;6.75;5.75
54305;PMS7003;50434;45.188;5.712;2022-07-30T04:49:45;5.75;5.75;4.75
54305;PMS7003;50434;45.188;5.712;2022-07-30T04:52:11;6.00;6.00;5.00
54305;PMS7003;50434;45.188;5.712;2022-07-30T04:54:39;7.25;7.25;5.25
54305;PMS7003;50434;45.188;5.712;2022-07-30T04:57:12;8.00;8.00;5.75
54305;PMS7003;50434;45.188;5.712;2022-07-30T04:59:39;6.50;6.50;5.00
54305;PMS7003;50434;45.188;5.712;2022-07-30T05:02:05;5.00;5.00;4.33
54305;PMS7003;50434;45.188;5.712;2022-07-30T05:04:33;6.50;6.50;4.75
54305;PMS7003;50434;45.188;5.712;2022-07-30T05:07:00;6.50;6.50;5.50
54305;PMS7003;50434;45.188;5.712;2022-07-30T05:09:27;5.75;5.75;5.75
54305;PMS7003;50434;45.188;5.712;2022-07-30T05:11:54;7.00;7.00;6.50
54305;PMS7003;50434;45.188;5.712;2022-07-30T05:14:20;6.75;6.75;5.75
54305;PMS7003;50434;45.188;5.712;2022-07-30T05:16:47;6.75;6.75;4.75
54305;PMS7003;50434;45.188;5.712;2022-07-30T05:19:13;8.00;8.00;6.00
54305;PMS7003;50434;45.188;5.712;2022-07-30T05:21:38;7.00;7.00;6.00
54305;PMS7003;50434;45.188;5.712;2022-07-30T05:24:04;6.00;6.00;5.00
54305;PMS7003;50434;45.188;5.712;2022-07-30T05:26:30;7.50;7.50;6.00
54305;PMS7003;50434;45.188;5.712;2022-07-30T05:28:55;9.33;9.33;7.33
54305;PMS7003;50434;45.188;5.712;2022-07-30T05:31:21;8.00;8.00;6.67
54305;PMS7003;50434;45.188;5.712;2022-07-30T05:33:46;6.67;6.67;5.00
54305;PMS7003;50434;45.188;5.712;2022-07-30T05:36:11;6.67;6.67;5.67
54305;PMS7003;50434;45.188;5.712;2022-07-30T05:38:37;7.00;7.00;6.33
54305;PMS7003;50434;45.188;5.712;2022-07-30T05:41:03;7.00;7.00;5.00
54305;PMS7003;50434;45.188;5.712;2022-07-30T05:43:28;7.00;7.00;5.00
54305;PMS7003;50434;45.188;5.712;2022-07-30T05:45:54;8.00;8.00;6.00
54305;PMS7003;50434;45.188;5.712;2022-07-30T05:48:19;5.33;5.33;4.67
54305;PMS7003;50434;45.188;5.712;2022-07-30T05:50:44;9.00;9.00;7.67
54305;PMS7003;50434;45.188;5.712;2022-07-30T05:53:10;7.67;7.67;7.00
54305;PMS7003;50434;45.188;5.712;2022-07-30T05:55:35;8.33;8.33;6.33
54305;PMS7003;50434;45.188;5.712;2022-07-30T05:58:01;8.00;8.00;6.33
54305;PMS7003;50434;45.188;5.712;2022-07-30T06:00:26;3.67;3.67;2.00
54305;PMS7003;50434;45.188;5.712;2022-07-30T06:02:52;7.00;7.00;6.67
54305;PMS7003;50434;45.188;5.712;2022-07-30T06:05:17;8.00;8.00;6.00
54305;PMS7003;50434;45.188;5.712;2022-07-30T06:07:42;7.33;7.33;6.00
54305;PMS7003;50434;45.188;5.712;2022-07-30T06:10:08;8.33;8.33;7.00
54305;PMS7003;50434;45.188;5.712;2022-07-30T06:12:33;7.00;7.00;5.00
54305;PMS7003;50434;45.188;5.712;2022-07-30T06:14:59;8.00;8.00;6.67
54305;PMS7003;50434;45.188;5.712;2022-07-30T06:17:24;8.00;8.00;7.00
54305;PMS7003;50434;45.188;5.712;2022-07-30T06:19:50;8.33;8.33;7.33
54305;PMS7003;50434;45.188;5.712;2022-07-30T06:22:17;8.00;8.00;6.25
54305;PMS7003;50434;45.188;5.712;2022-07-30T06:24:42;7.00;7.00;6.00
54305;PMS7003;50434;45.188;5.712;2022-07-30T06:27:08;8.00;8.00;6.67
54305;PMS7003;50434;45.188;5.712;2022-07-30T06:29:33;11.33;11.33;8.00
54305;PMS7003;50434;45.188;5.712;2022-07-30T06:32:00;8.00;8.00;6.25
54305;PMS7003;50434;45.188;5.712;2022-07-30T06:34:25;7.00;7.00;6.00
54305;PMS7003;50434;45.188;5.712;2022-07-30T06:36:51;7.33;7.33;6.00
54305;PMS7003;50434;45.188;5.712;2022-07-30T06:39:16;9.00;9.00;7.33
54305;PMS7003;50434;45.188;5.712;2022-07-30T06:41:42;8.00;8.00;7.00
54305;PMS7003;50434;45.188;5.712;2022-07-30T06:44:07;8.33;8.33;6.33
54305;PMS7003;50434;45.188;5.712;2022-07-30T06:46:32;10.00;10.00;8.00
54305;PMS7003;50434;45.188;5.712;2022-07-30T06:48:58;7.33;7.33;6.00
54305;PMS7003;50434;45.188;5.712;2022-07-30T06:51:23;7.00;7.00;5.67
54305;PMS7003;50434;45.188;5.712;2022-07-30T06:53:49;8.00;8.00;6.67
54305;PMS7003;50434;45.188;5.712;2022-07-30T06:56:14;8.00;8.00;7.00
54305;PMS7003;50434;45.188;5.712;2022-07-30T06:58:39;6.00;6.00;5.00
54305;PMS7003;50434;45.188;5.712;2022-07-30T07:01:05;7.00;7.00;6.33
54305;PMS7003;50434;45.188;5.712;2022-07-30T07:03:31;7.67;7.67;6.00
54305;PMS7003;50434;45.188;5.712;2022-07-30T07:05:56;7.33;7.33;5.67
54305;PMS7003;50434;45.188;5.712;2022-07-30T07:08:22;8.00;8.00;6.00
54305;PMS7003;50434;45.188;5.712;2022-07-30T07:10:47;7.33;7.33;5.33
54305;PMS7003;50434;45.188;5.712;2022-07-30T07:13:12;7.00;7.00;6.00
54305;PMS7003;50434;45.188;5.712;2022-07-30T07:15:38;6.00;6.00;5.67
54305;PMS7003;50434;45.188;5.712;2022-07-30T07:18:03;6.33;6.33;5.00
54305;PMS7003;50434;45.188;5.712;2022-07-30T07:20:30;5.50;5.50;5.00
54305;PMS7003;50434;45.188;5.712;2022-07-30T07:22:56;6.00;6.00;5.33
54305;PMS7003;50434;45.188;5.712;2022-07-30T07:25:21;7.00;7.00;6.00
54305;PMS7003;50434;45.188;5.712;2022-07-30T07:27:47;6.00;6.00;5.00
54305;PMS7003;50434;45.188;5.712;2022-07-30T07:30:13;6.67;6.67;5.67
54305;PMS7003;50434;45.188;5.712;2022-07-30T07:32:38;6.00;6.00;5.00
54305;PMS7003;50434;45.188;5.712;2022-07-30T07:35:04;6.33;6.33;6.00
54305;PMS7003;50434;45.188;5.712;2022-07-30T07:37:30;6.50;6.50;6.00
54305;PMS7003;50434;45.188;5.712;2022-07-30T07:39:55;6.33;6.33;6.00
54305;PMS7003;50434;45.188;5.712;2022-07-30T07:42:20;8.00;8.00;6.00
54305;PMS7003;50434;45.188;5.712;2022-07-30T07:44:46;8.33;8.33;6.33
54305;PMS7003;50434;45.188;5.712;2022-07-30T07:47:11;7.00;7.00;6.00
54305;PMS7003;50434;45.188;5.712;2022-07-30T07:49:37;8.00;8.00;6.00
54305;PMS7003;50434;45.188;5.712;2022-07-30T07:52:02;6.33;6.33;5.00
54305;PMS7003;50434;45.188;5.712;2022-07-30T07:54:28;8.00;8.00;6.00
54305;PMS7003;50434;45.188;5.712;2022-07-30T07:56:53;7.67;7.67;6.00
54305;PMS7003;50434;45.188;5.712;2022-07-30T07:59:21;7.00;7.00;6.00
54305;PMS7003;50434;45.188;5.712;2022-07-30T08:01:47;7.33;7.33;6.00
54305;PMS7003;50434;45.188;5.712;2022-07-30T08:04:13;7.00;7.00;6.00
54305;PMS7003;50434;45.188;5.712;2022-07-30T08:06:38;8.67;8.67;6.33
54305;PMS7003;50434;45.188;5.712;2022-07-30T08:09:03;9.33;9.33;8.33
54305;PMS7003;50434;45.188;5.712;2022-07-30T08:11:29;9.00;9.00;8.00
54305;PMS7003;50434;45.188;5.712;2022-07-30T08:13:54;8.67;8.67;6.67
54305;PMS7003;50434;45.188;5.712;2022-07-30T08:16:20;8.33;8.33;6.33
54305;PMS7003;50434;45.188;5.712;2022-07-30T08:18:45;8.33;8.33;7.00
54305;PMS7003;50434;45.188;5.712;2022-07-30T08:21:10;7.67;7.67;6.33
54305;PMS7003;50434;45.188;5.712;2022-07-30T08:23:36;13.00;11.00;9.00
54305;PMS7003;50434;45.188;5.712;2022-07-30T08:26:01;8.67;8.67;6.67
54305;PMS7003;50434;45.188;5.712;2022-07-30T08:28:27;7.00;7.00;6.00
54305;PMS7003;50434;45.188;5.712;2022-07-30T08:30:52;8.00;8.00;6.33
54305;PMS7003;50434;45.188;5.712;2022-07-30T08:33:18;7.00;7.00;6.00
54305;PMS7003;50434;45.188;5.712;2022-07-30T08:35:43;11.33;11.33;9.00
54305;PMS7003;50434;45.188;5.712;2022-07-30T08:38:09;6.67;6.67;6.33
54305;PMS7003;50434;45.188;5.712;2022-07-30T08:40:34;7.00;7.00;5.67
54305;PMS7003;50434;45.188;5.712;2022-07-30T08:43:04;7.33;7.33;5.33
54305;PMS7003;50434;45.188;5.712;2022-07-30T08:45:30;7.75;7.75;5.75
54305;PMS7003;50434;45.188;5.712;2022-07-30T08:47:56;10.33;10.33;8.33
54305;PMS7003;50434;45.188;5.712;2022-07-30T08:50:25;6.75;6.75;5.75
54305;PMS7003;50434;45.188;5.712;2022-07-30T08:52:51;7.50;7.50;5.25
54305;PMS7003;50434;45.188;5.712;2022-07-30T08:55:20;10.25;9.75;6.75
54305;PMS7003;50434;45.188;5.712;2022-07-30T08:57:49;11.50;11.50;8.75
54305;PMS7003;50434;45.188;5.712;2022-07-30T09:00:15;7.25;7.25;6.00
54305;PMS7003;50434;45.188;5.712;2022-07-30T09:02:41;8.33;8.33;6.67
54305;PMS7003;50434;45.188;5.712;2022-07-30T09:05:07;6.67;6.67;5.00
54305;PMS7003;50434;45.188;5.712;2022-07-30T09:07:33;7.50;7.50;6.75
54305;PMS7003;50434;45.188;5.712;2022-07-30T09:09:59;8.75;8.75;7.25
54305;PMS7003;50434;45.188;5.712;2022-07-30T09:15:00;7.50;7.50;6.25
54305;PMS7003;50434;45.188;5.712;2022-07-30T09:20:12;10.00;10.00;8.00
54305;PMS7003;50434;45.188;5.712;2022-07-30T09:22:42;8.00;8.00;7.00
54305;PMS7003;50434;45.188;5.712;2022-07-30T09:25:10;7.00;7.00;5.00
54305;PMS7003;50434;45.188;5.712;2022-07-30T09:30:11;8.80;8.80;7.80
54305;PMS7003;50434;45.188;5.712;2022-07-30T09:35:13;8.75;8.75;7.00
54305;PMS7003;50434;45.188;5.712;2022-07-30T09:37:39;10.75;10.75;7.75
54305;PMS7003;50434;45.188;5.712;2022-07-30T09:40:14;8.67;8.67;7.00
54305;PMS7003;50434;45.188;5.712;2022-07-30T09:42:41;8.00;8.00;7.00
54305;PMS7003;50434;45.188;5.712;2022-07-30T09:45:13;6.50;6.50;5.50
54305;PMS7003;50434;45.188;5.712;2022-07-30T09:47:40;12.50;12.50;10.00
54305;PMS7003;50434;45.188;5.712;2022-07-30T09:50:12;9.50;9.50;8.25
54305;PMS7003;50434;45.188;5.712;2022-07-30T09:52:41;8.60;8.60;6.80
54305;PMS7003;50434;45.188;5.712;2022-07-30T09:55:08;15.25;15.25;10.50
54305;PMS7003;50434;45.188;5.712;2022-07-30T09:57:34;8.75;8.75;6.75
54305;PMS7003;50434;45.188;5.712;2022-07-30T10:00:21;8.33;8.33;6.67
54305;PMS7003;50434;45.188;5.712;2022-07-30T10:02:48;7.20;7.20;6.20
54305;PMS7003;50434;45.188;5.712;2022-07-30T10:05:16;7.75;7.75;5.50
54305;PMS7003;50434;45.188;5.712;2022-07-30T10:07:56;8.50;8.50;6.50
54305;PMS7003;50434;45.188;5.712;2022-07-30T10:10:25;7.40;7.40;6.40
54305;PMS7003;50434;45.188;5.712;2022-07-30T10:12:58;6.40;6.40;5.20
54305;PMS7003;50434;45.188;5.712;2022-07-30T10:15:29;5.20;5.20;4.20
54305;PMS7003;50434;45.188;5.712;2022-07-30T10:17:57;12.25;12.25;9.25
54305;PMS7003;50434;45.188;5.712;2022-07-30T10:20:24;4.80;4.80;4.00
54305;PMS7003;50434;45.188;5.712;2022-07-30T10:22:50;4.20;4.20;3.20
54305;PMS7003;50434;45.188;5.712;2022-07-30T10:25:20;3.25;3.25;2.50
54305;PMS7003;50434;45.188;5.712;2022-07-30T10:27:47;4.80;4.80;3.80
54305;PMS7003;50434;45.188;5.712;2022-07-30T10:30:13;4.60;4.60;3.60
54305;PMS7003;50434;45.188;5.712;2022-07-30T10:32:39;5.50;5.50;5.00
54305;PMS7003;50434;45.188;5.712;2022-07-30T10:35:05;4.00;4.00;4.00
54305;PMS7003;50434;45.188;5.712;2022-07-30T10:37:33;5.20;5.20;3.60
54305;PMS7003;50434;45.188;5.712;2022-07-30T10:40:13;5.20;5.20;4.00
54305;PMS7003;50434;45.188;5.712;2022-07-30T10:43:06;6.00;6.00;5.40
54305;PMS7003;50434;45.188;5.712;2022-07-30T10:48:18;4.00;4.00;3.00
54305;PMS7003;50434;45.188;5.712;2022-07-30T10:50:48;3.20;3.20;3.00
54305;PMS7003;50434;45.188;5.712;2022-07-30T10:53:37;2.80;2.80;2.80
54305;PMS7003;50434;45.188;5.712;2022-07-30T10:56:20;5.40;5.40;4.80
54305;PMS7003;50434;45.188;5.712;2022-07-30T11:01:25;3.20;3.20;2.20
54305;PMS7003;50434;45.188;5.712;2022-07-30T11:04:19;3.40;3.40;2.00
54305;PMS7003;50434;45.188;5.712;2022-07-30T11:06:46;3.20;3.20;3.20
54305;PMS7003;50434;45.188;5.712;2022-07-30T11:12:07;2.00;2.00;2.00
54305;PMS7003;50434;45.188;5.712;2022-07-30T11:17:11;2.20;2.20;2.00
54305;PMS7003;50434;45.188;5.712;2022-07-30T11:22:32;2.80;2.80;2.60
54305;PMS7003;50434;45.188;5.712;2022-07-30T11:25:08;2.20;2.20;1.80
54305;PMS7003;50434;45.188;5.712;2022-07-30T11:27:55;3.80;3.80;3.40
54305;PMS7003;50434;45.188;5.712;2022-07-30T11:32:53;4.25;4.25;3.75
54305;PMS7003;50434;45.188;5.712;2022-07-30T11:38:00;3.20;3.20;2.60
54305;PMS7003;50434;45.188;5.712;2022-07-30T11:40:35;3.40;3.40;2.80
54305;PMS7003;50434;45.188;5.712;2022-07-30T11:45:40;3.00;3.00;2.80
54305;PMS7003;50434;45.188;5.712;2022-07-30T11:48:11;2.00;2.00;1.80
54305;PMS7003;50434;45.188;5.712;2022-07-30T11:50:39;1.40;1.40;1.40
54305;PMS7003;50434;45.188;5.712;2022-07-30T11:53:09;1.60;1.60;1.40
54305;PMS7003;50434;45.188;5.712;2022-07-30T11:55:49;2.00;2.00;2.00
54305;PMS7003;50434;45.188;5.712;2022-07-30T12:01:13;2.80;2.80;2.40
54305;PMS7003;50434;45.188;5.712;2022-07-30T12:03:41;2.00;2.00;2.00
54305;PMS7003;50434;45.188;5.712;2022-07-30T12:06:12;2.00;2.00;2.00
54305;PMS7003;50434;45.188;5.712;2022-07-30T12:08:50;2.20;2.20;2.20
54305;PMS7003;50434;45.188;5.712;2022-07-30T12:11:17;1.00;1.00;1.00
54305;PMS7003;50434;45.188;5.712;2022-07-30T12:13:53;2.00;2.00;1.80
54305;PMS7003;50434;45.188;5.712;2022-07-30T12:16:21;2.00;2.00;2.00
54305;PMS7003;50434;45.188;5.712;2022-07-30T12:18:47;1.00;1.00;1.00
54305;PMS7003;50434;45.188;5.712;2022-07-30T12:21:13;1.25;1.25;1.00
54305;PMS7003;50434;45.188;5.712;2022-07-30T12:26:25;1.00;1.00;1.00
54305;PMS7003;50434;45.188;5.712;2022-07-30T12:28:53;2.00;2.00;1.00
54305;PMS7003;50434;45.188;5.712;2022-07-30T12:31:25;1.00;1.00;0.40
54305;PMS7003;50434;45.188;5.712;2022-07-30T12:33:52;1.20;1.20;0.80
54305;PMS7003;50434;45.188;5.712;2022-07-30T12:38:55;1.80;1.80;1.20
54305;PMS7003;50434;45.188;5.712;2022-07-30T12:41:22;1.00;1.00;0.60
54305;PMS7003;50434;45.188;5.712;2022-07-30T12:43:52;1.00;1.00;1.00
54305;PMS7003;50434;45.188;5.712;2022-07-30T12:46:22;0.80;0.80;0.80
54305;PMS7003;50434;45.188;5.712;2022-07-30T12:51:19;0.40;0.40;0.20
54305;PMS7003;50434;45.188;5.712;2022-07-30T12:53:49;0.20;0.20;0.20
54305;PMS7003;50434;45.188;5.712;2022-07-30T12:56:24;0.60;0.60;0.20
54305;PMS7003;50434;45.188;5.712;2022-07-30T12:58:51;0.20;0.20;0.20
54305;PMS7003;50434;45.188;5.712;2022-07-30T13:01:18;1.00;0.80;0.80
54305;PMS7003;50434;45.188;5.712;2022-07-30T13:04:04;0.60;0.60;0.60
54305;PMS7003;50434;45.188;5.712;2022-07-30T13:06:29;0.80;0.80;0.80
54305;PMS7003;50434;45.188;5.712;2022-07-30T13:08:56;0.00;0.00;0.00
54305;PMS7003;50434;45.188;5.712;2022-07-30T13:11:42;0.00;0.00;0.00
54305;PMS7003;50434;45.188;5.712;2022-07-30T13:14:09;1.40;1.40;1.40
54305;PMS7003;50434;45.188;5.712;2022-07-30T13:16:40;0.00;0.00;0.00
54305;PMS7003;50434;45.188;5.712;2022-07-30T13:19:06;1.25;1.25;0.75
54305;PMS7003;50434;45.188;5.712;2022-07-30T13:21:33;0.00;0.00;0.00
54305;PMS7003;50434;45.188;5.712;2022-07-30T13:23:59;0.00;0.00;0.00
54305;PMS7003;50434;45.188;5.712;2022-07-30T13:26:25;0.00;0.00;0.00
54305;PMS7003;50434;45.188;5.712;2022-07-30T13:28:53;0.00;0.00;0.00
54305;PMS7003;50434;45.188;5.712;2022-07-30T13:31:20;1.00;1.00;1.00
54305;PMS7003;50434;45.188;5.712;2022-07-30T13:33:46;1.80;1.00;1.00
54305;PMS7003;50434;45.188;5.712;2022-07-30T13:36:11;0.50;0.50;0.50
54305;PMS7003;50434;45.188;5.712;2022-07-30T13:38:37;0.00;0.00;0.00
54305;PMS7003;50434;45.188;5.712;2022-07-30T13:41:03;0.75;0.75;0.25
54305;PMS7003;50434;45.188;5.712;2022-07-30T13:43:29;0.00;0.00;0.00
54305;PMS7003;50434;45.188;5.712;2022-07-30T13:45:55;0.00;0.00;0.00
54305;PMS7003;50434;45.188;5.712;2022-07-30T13:48:20;0.25;0.25;0.25
54305;PMS7003;50434;45.188;5.712;2022-07-30T13:50:47;0.00;0.00;0.00
54305;PMS7003;50434;45.188;5.712;2022-07-30T13:53:13;1.80;1.80;1.00
54305;PMS7003;50434;45.188;5.712;2022-07-30T13:55:39;0.00;0.00;0.00
54305;PMS7003;50434;45.188;5.712;2022-07-30T13:58:06;3.00;3.00;2.80
54305;PMS7003;50434;45.188;5.712;2022-07-30T14:00:32;0.80;0.80;0.20
54305;PMS7003;50434;45.188;5.712;2022-07-30T14:03:00;1.60;1.60;0.80
54305;PMS7003;50434;45.188;5.712;2022-07-30T14:05:31;4.60;4.60;4.20
54305;PMS7003;50434;45.188;5.712;2022-07-30T14:07:57;1.25;1.25;0.75
54305;PMS7003;50434;45.188;5.712;2022-07-30T14:10:23;0.00;0.00;0.00
54305;PMS7003;50434;45.188;5.712;2022-07-30T14:12:49;1.00;1.00;1.00
54305;PMS7003;50434;45.188;5.712;2022-07-30T14:15:15;0.00;0.00;0.00
54305;PMS7003;50434;45.188;5.712;2022-07-30T14:17:41;1.00;1.00;1.00
54305;PMS7003;50434;45.188;5.712;2022-07-30T14:20:06;1.00;1.00;1.00
54305;PMS7003;50434;45.188;5.712;2022-07-30T14:22:32;1.00;1.00;1.00
54305;PMS7003;50434;45.188;5.712;2022-07-30T14:24:57;1.00;1.00;1.00
54305;PMS7003;50434;45.188;5.712;2022-07-30T14:27:24;0.00;0.00;0.00
54305;PMS7003;50434;45.188;5.712;2022-07-30T14:29:49;0.00;0.00;0.00
54305;PMS7003;50434;45.188;5.712;2022-07-30T14:32:15;1.00;1.00;1.00
54305;PMS7003;50434;45.188;5.712;2022-07-30T14:34:40;1.00;1.00;0.00
54305;PMS7003;50434;45.188;5.712;2022-07-30T14:37:06;1.00;1.00;1.00
54305;PMS7003;50434;45.188;5.712;2022-07-30T14:39:32;1.20;1.20;0.40
54305;PMS7003;50434;45.188;5.712;2022-07-30T14:41:57;0.50;0.50;0.50
54305;PMS7003;50434;45.188;5.712;2022-07-30T14:44:22;0.50;0.50;0.50
54305;PMS7003;50434;45.188;5.712;2022-07-30T14:46:48;1.50;1.50;1.25
54305;PMS7003;50434;45.188;5.712;2022-07-30T14:49:13;0.00;0.00;0.00
54305;PMS7003;50434;45.188;5.712;2022-07-30T14:51:39;1.00;1.00;0.50
54305;PMS7003;50434;45.188;5.712;2022-07-30T14:54:05;1.00;1.00;0.50
54305;PMS7003;50434;45.188;5.712;2022-07-30T14:56:31;1.00;1.00;0.40
54305;PMS7003;50434;45.188;5.712;2022-07-30T14:58:57;1.50;1.50;1.50
54305;PMS7003;50434;45.188;5.712;2022-07-30T15:01:23;2.00;2.00;1.25
54305;PMS7003;50434;45.188;5.712;2022-07-30T15:03:48;0.00;0.00;0.00
54305;PMS7003;50434;45.188;5.712;2022-07-30T15:06:14;0.60;0.60;0.60